Terminal Aerodrome Forecast
Issued by NWS Cleveland, OH

Home | Current Version | Previous Version | Text Only | Print | Product List | Glossary On
Versions: 1 2 3 4 5 6 7 8 9 10 11 12 13 14 15 16
283
FTUS41 KCLE 281952 AAD
TAFYNG
TAF AMD
KYNG 281952Z 2820/2918 21010KT P6SM VCTS BKN025CB BKN050
      TEMPO 2901/2903 VRB20G35KT 3SM TSRA BKN025CB OVC040
     FM290600 25008KT P6SM BKN025 OVC080
     FM291500 25010KT P6SM SCT040=

USA.gov is the U.S. government's official web portal to all federal, state and local government web resources and services.